Time;durP1;ratioP1;P1;durP2;ratioP2;P2;SDS_P1;SDS_P2;PMS_P1;PMS_P2;Temp;Humidity;BMP_temperature;BMP_pressure;BME280_temperature;BME280_humidity;BME280_pressure;Samples;Min_cycle;Max_cycle;Signal;HPM_P1;HPM_P2
2022/03/12 00:00:48;;;;;;;19.67;10.53;;;;;;;-0.83;82.10;95321.56;5034854;28;20211;-64
2022/03/12 00:03:15;;;;;;;22.63;11.90;;;;;;;-0.69;83.50;95319.44;5034478;28;20236;-62
2022/03/12 00:06:15;;;;;;;21.53;12.80;;;;;;;-0.74;83.47;95316.28;5034269;28;20701;-65
2022/03/12 00:08:42;;;;;;;29.40;13.80;;;;;;;-0.87;85.23;95295.06;5032071;28;20252;-63
2022/03/12 00:11:14;;;;;;;22.03;11.97;;;;;;;-1.07;86.17;95293.16;5036182;28;20210;-64
2022/03/12 00:13:40;;;;;;;21.17;11.83;;;;;;;-1.15;88.90;95271.81;5016483;28;20245;-63
2022/03/12 00:16:10;;;;;;;23.93;12.07;;;;;;;-1.38;93.24;95274.16;5033995;28;20598;-63
2022/03/12 00:18:38;;;;;;;19.07;11.30;;;;;;;-1.21;93.65;95309.41;5034134;28;20598;-63
2022/03/12 00:21:06;;;;;;;20.50;10.93;;;;;;;-1.28;92.62;95300.44;5047343;23;20281;-63
2022/03/12 00:23:31;;;;;;;24.13;11.37;;;;;;;-1.12;95.00;95289.97;5072679;28;20178;-65
2022/03/12 00:25:58;;;;;;;21.20;12.07;;;;;;;-1.10;93.47;95307.38;5074053;28;20199;-64
2022/03/12 00:28:24;;;;;;;23.10;12.97;;;;;;;-0.99;93.30;95316.19;5074376;28;20558;-63
2022/03/12 00:30:51;;;;;;;23.40;13.03;;;;;;;-0.83;94.16;95291.59;5074260;28;20627;-62
2022/03/12 00:33:21;;;;;;;26.43;14.00;;;;;;;-0.69;93.11;95313.63;5073406;28;20570;-65
2022/03/12 00:35:49;;;;;;;24.77;14.07;;;;;;;-0.64;93.93;95306.81;5071987;28;20731;-65
2022/03/12 00:38:20;;;;;;;23.83;13.13;;;;;;;-0.74;94.55;95298.78;5073422;28;20174;-64
2022/03/12 00:40:46;;;;;;;22.30;12.20;;;;;;;-0.75;94.26;95299.69;5073444;28;20226;-65
2022/03/12 00:43:15;;;;;;;24.23;13.33;;;;;;;-0.61;94.69;95302.56;5073185;28;20179;-63
2022/03/12 00:45:42;;;;;;;24.47;12.13;;;;;;;-0.60;95.05;95303.34;5072918;28;20238;-62
2022/03/12 00:48:08;;;;;;;20.67;11.87;;;;;;;-0.45;94.60;95302.88;5074063;28;20662;-63
2022/03/12 00:50:34;;;;;;;19.40;11.33;;;;;;;-0.42;94.85;95301.09;5073471;28;20358;-63
2022/03/12 00:53:00;;;;;;;20.03;11.03;;;;;;;-0.32;94.48;95309.09;5073795;28;20260;-64
2022/03/12 00:55:27;;;;;;;16.57;9.70;;;;;;;-0.38;95.14;95294.31;5073310;28;20218;-63
2022/03/12 00:57:53;;;;;;;17.67;10.30;;;;;;;-0.57;95.86;95290.78;5072114;28;20275;-66
2022/03/12 01:00:21;;;;;;;14.90;8.37;;;;;;;-0.68;96.59;95290.28;5073622;28;20312;-63
2022/03/12 01:02:49;;;;;;;13.13;8.30;;;;;;;-0.85;96.45;95294.13;5071969;28;20183;-64
2022/03/12 01:05:17;;;;;;;11.10;7.40;;;;;;;-0.90;97.59;95298.47;5051586;23;20234;-63
2022/03/12 01:07:44;;;;;;;13.40;6.70;;;;;;;-0.87;97.82;95307.53;5013481;28;20179;-65
2022/03/12 01:10:09;;;;;;;8.67;6.20;;;;;;;-0.82;96.34;95313.19;5013683;28;20296;-62
2022/03/12 01:12:36;;;;;;;11.23;5.83;;;;;;;-0.82;94.76;95322.34;5013255;28;20178;-65
2022/03/12 01:15:02;;;;;;;9.40;6.20;;;;;;;-1.10;97.14;95297.41;5012609;28;20198;-62
2022/03/12 01:17:28;;;;;;;11.10;6.03;;;;;;;-1.11;98.38;95298.28;5011837;28;20192;-64
2022/03/12 01:19:54;;;;;;;11.07;6.70;;;;;;;-1.08;98.52;95304.00;5013346;28;20196;-63
2022/03/12 01:22:26;;;;;;;8.23;5.63;;;;;;;-1.08;99.51;95306.50;5013631;28;20596;-62
2022/03/12 01:24:52;;;;;;;7.90;5.53;;;;;;;-1.17;100.00;95304.25;5013295;28;20205;-63
2022/03/12 01:27:17;;;;;;;7.10;4.90;;;;;;;-1.15;98.89;95312.50;5011739;28;20184;-64
2022/03/12 01:29:43;;;;;;;9.93;5.27;;;;;;;-1.18;99.27;95309.28;5013437;28;20273;-64
2022/03/12 01:32:09;;;;;;;8.47;5.33;;;;;;;-1.19;100.00;95305.97;5012279;28;20292;-63
2022/03/12 01:34:35;;;;;;;6.90;5.00;;;;;;;-1.08;99.54;95310.66;5013026;28;20273;-62
2022/03/12 01:37:00;;;;;;;8.57;5.03;;;;;;;-1.08;99.69;95309.00;5012771;28;20252;-65
2022/03/12 01:39:27;;;;;;;8.13;5.33;;;;;;;-1.07;98.57;95322.28;5027877;28;20684;-63
2022/03/12 01:41:53;;;;;;;7.90;5.37;;;;;;;-1.21;99.17;95315.19;5011564;28;20225;-64
2022/03/12 01:44:20;;;;;;;10.30;6.40;;;;;;;-1.10;98.99;95312.38;5011532;28;20288;-65
2022/03/12 01:46:48;;;;;;;9.43;5.20;;;;;;;-1.10;98.51;95312.38;5012687;28;20206;-64
2022/03/12 01:49:23;;;;;;;7.37;4.80;;;;;;;-1.03;97.36;95319.63;5013195;28;20190;-65
2022/03/12 01:51:54;;;;;;;7.07;4.63;;;;;;;-1.56;95.74;95315.38;5011893;28;20204;-65
2022/03/12 01:54:25;;;;;;;7.30;4.63;;;;;;;-1.80;98.83;95291.13;5013403;28;20195;-65
2022/03/12 01:56:53;;;;;;;15.43;5.97;;;;;;;-2.00;100.00;95279.19;5050516;23;20231;-61
2022/03/12 01:59:19;;;;;;;9.67;5.80;;;;;;;-2.06;100.00;95281.03;5034086;28;20262;-62
2022/03/12 02:01:52;;;;;;;7.90;4.50;;;;;;;-2.40;100.00;95278.56;5052977;28;20226;-65
2022/03/12 02:04:20;;;;;;;8.63;5.33;;;;;;;-2.68;100.00;95275.13;5052385;28;20196;-61
2022/03/12 02:06:46;;;;;;;6.13;3.93;;;;;;;-2.41;100.00;95289.41;5052627;28;20625;-64
2022/03/12 02:09:14;;;;;;;7.07;4.80;;;;;;;-2.27;100.00;95294.03;5033988;28;20597;-64
2022/03/12 02:11:41;;;;;;;6.07;3.87;;;;;;;-2.53;100.00;95302.13;5052323;28;20214;-63
2022/03/12 02:14:09;;;;;;;7.10;4.87;;;;;;;-2.48;100.00;95302.81;5051986;28;20205;-63
2022/03/12 02:16:35;;;;;;;5.60;4.20;;;;;;;-2.40;100.00;95308.44;5052408;28;20716;-62
2022/03/12 02:19:01;;;;;;;7.43;4.53;;;;;;;-2.52;100.00;95293.81;5033779;28;20177;-66
2022/03/12 02:21:44;;;;;;;5.93;3.63;;;;;;;-2.54;100.00;95298.00;5033956;28;20295;-62
2022/03/12 02:24:12;;;;;;;5.90;3.87;;;;;;;-2.60;99.56;95333.81;5051742;28;20227;-66
2022/03/12 02:26:41;;;;;;;6.07;4.07;;;;;;;-2.81;98.74;95331.00;5051925;28;20201;-62
2022/03/12 02:29:09;;;;;;;5.63;3.10;;;;;;;-2.73;99.75;95320.00;5051486;28;20194;-65
2022/03/12 02:31:36;;;;;;;6.83;3.90;;;;;;;-2.86;98.58;95330.28;5052232;28;20204;-65
2022/03/12 02:34:04;;;;;;;5.47;3.87;;;;;;;-2.79;98.09;95321.84;5051607;28;20603;-63
2022/03/12 02:36:29;;;;;;;6.80;3.93;;;;;;;-2.83;97.53;95330.22;5051964;28;20314;-61
2022/03/12 02:38:56;;;;;;;4.17;2.90;;;;;;;-2.99;94.66;95348.81;5051419;28;20601;-62
2022/03/12 02:41:23;;;;;;;4.17;2.73;;;;;;;-2.86;95.59;95338.56;5033461;28;20244;-65
2022/03/12 02:43:50;;;;;;;6.30;3.30;;;;;;;-2.65;94.94;95345.50;5057845;28;20635;-63
2022/03/12 02:46:16;;;;;;;4.97;3.03;;;;;;;-2.44;92.66;95374.06;5040516;28;20214;-62
2022/03/12 02:48:49;;;;;;;5.00;3.07;;;;;;;-2.43;95.42;95335.06;5058988;28;20231;-61
2022/03/12 02:51:16;;;;;;;4.97;3.33;;;;;;;-2.25;94.96;95339.59;5040773;28;20204;-63
2022/03/12 02:53:42;;;;;;;5.77;2.97;;;;;;;-2.10;95.11;95354.97;5057863;28;20695;-61
2022/03/12 02:56:08;;;;;;;7.07;3.83;;;;;;;-2.03;96.09;95344.03;5058699;28;20216;-62
2022/03/12 02:58:33;;;;;;;6.47;4.00;;;;;;;-1.98;96.32;95333.94;5040138;28;20271;-63
2022/03/12 03:01:05;;;;;;;7.23;3.90;;;;;;;-1.86;95.22;95349.38;5040575;28;20287;-62
2022/03/12 03:03:35;;;;;;;7.27;4.17;;;;;;;-1.71;93.87;95368.91;5057984;28;20224;-62
2022/03/12 03:06:01;;;;;;;5.60;3.40;;;;;;;-1.58;94.07;95366.09;5058631;28;20205;-64
2022/03/12 03:08:28;;;;;;;7.87;4.30;;;;;;;-1.46;94.20;95371.59;5058080;28;20190;-65
2022/03/12 03:10:57;;;;;;;4.97;3.83;;;;;;;-1.41;93.67;95368.94;5058253;28;20203;-61
2022/03/12 03:13:23;;;;;;;6.30;4.37;;;;;;;-1.25;92.52;95388.44;5057911;28;20195;-66
2022/03/12 03:15:55;;;;;;;6.07;4.27;;;;;;;-1.34;91.69;95378.72;5058874;28;20203;-62
2022/03/12 03:18:25;;;;;;;6.50;4.07;;;;;;;-1.28;92.05;95381.06;5040014;28;20264;-62
2022/03/12 03:20:53;;;;;;;7.00;4.77;;;;;;;-1.21;90.60;95397.47;5058523;28;20298;-63
2022/03/12 03:23:21;;;;;;;6.97;4.60;;;;;;;-1.16;90.75;95398.19;5057926;28;20180;-63
2022/03/12 03:25:47;;;;;;;5.93;4.20;;;;;;;-1.07;89.61;95407.88;5060127;28;20213;-63
2022/03/12 03:28:13;;;;;;;8.17;5.03;;;;;;;-0.96;89.76;95410.09;5057877;28;20590;-63
2022/03/12 03:30:39;;;;;;;7.07;4.40;;;;;;;-0.96;89.46;95405.09;5057799;28;20251;-64
2022/03/12 03:33:14;;;;;;;9.37;5.13;;;;;;;-0.96;89.43;95403.41;5040041;28;20177;-63
2022/03/12 03:35:40;;;;;;;8.77;4.80;;;;;;;-1.00;89.29;95408.53;5057896;28;20240;-63
2022/03/12 03:38:11;;;;;;;7.07;4.63;;;;;;;-0.94;89.09;95398.38;5057743;28;20209;-62
2022/03/12 03:40:37;;;;;;;8.23;4.00;;;;;;;-1.02;89.57;95385.31;5057703;28;20586;-66
2022/03/12 03:43:06;;;;;;;8.87;5.17;;;;;;;-1.11;88.99;95398.84;5057638;28;20564;-62
2022/03/12 03:45:31;;;;;;;7.67;4.53;;;;;;;-1.25;88.09;95407.59;5039773;28;20209;-62
2022/03/12 03:47:57;;;;;;;8.77;4.77;;;;;;;-1.70;89.60;95380.50;5063980;23;20315;-63
2022/03/12 03:50:26;;;;;;;8.60;4.63;;;;;;;-1.48;88.15;95402.38;5023007;28;20369;-62
2022/03/12 03:52:56;;;;;;;5.90;4.17;;;;;;;-1.40;87.60;95410.47;5058085;28;20266;-62
2022/03/12 03:55:25;;;;;;;9.10;4.80;;;;;;;-1.21;87.98;95411.63;5054331;28;20262;-63
2022/03/12 03:57:53;;;;;;;6.33;4.63;;;;;;;-1.23;86.66;95429.13;5054407;28;20702;-62
2022/03/12 04:00:22;;;;;;;7.53;4.17;;;;;;;-1.12;87.14;95429.66;5054206;28;20657;-63
2022/03/12 04:02:49;;;;;;;7.07;4.37;;;;;;;-1.41;86.61;95433.75;5054212;28;20701;-65
2022/03/12 04:05:14;;;;;;;7.63;4.83;;;;;;;-1.90;86.93;95412.59;5036270;28;20576;-64
2022/03/12 04:07:40;;;;;;;7.63;5.00;;;;;;;-1.72;87.17;95407.13;5054394;28;20666;-63
2022/03/12 04:10:06;;;;;;;6.53;4.53;;;;;;;-1.76;88.37;95394.81;5036336;28;20228;-66
2022/03/12 04:12:31;;;;;;;6.27;4.47;;;;;;;-1.54;87.21;95415.00;5036388;28;20186;-63
2022/03/12 04:14:58;;;;;;;9.53;4.60;;;;;;;-1.56;87.38;95416.72;5053885;28;20257;-63
2022/03/12 04:17:23;;;;;;;6.43;4.27;;;;;;;-1.47;87.26;95421.47;5054259;28;20188;-62
2022/03/12 04:19:49;;;;;;;5.57;4.40;;;;;;;-1.35;87.41;95416.97;5035775;28;20180;-63
2022/03/12 04:22:16;;;;;;;9.20;4.67;;;;;;;-1.26;86.85;95419.22;5054061;28;20681;-65
2022/03/12 04:24:42;;;;;;;7.67;4.67;;;;;;;-1.18;86.60;95438.97;5053847;28;20177;-65
2022/03/12 04:27:08;;;;;;;7.57;5.27;;;;;;;-1.15;86.33;95437.19;5053730;28;20243;-64
2022/03/12 04:29:33;;;;;;;8.47;5.47;;;;;;;-1.17;85.85;95436.44;5053749;28;20220;-64
2022/03/12 04:31:59;;;;;;;7.63;4.87;;;;;;;-1.16;84.74;95458.03;5054079;28;20208;-66
2022/03/12 04:34:24;;;;;;;7.37;4.30;;;;;;;-1.30;85.14;95454.25;5053882;28;20185;-63
2022/03/12 04:36:50;;;;;;;7.47;4.77;;;;;;;-1.24;84.36;95474.03;5035788;28;20573;-65
2022/03/12 04:39:15;;;;;;;12.50;6.67;;;;;;;-1.42;85.44;95439.63;5053538;28;20259;-64
2022/03/12 04:41:41;;;;;;;10.93;5.90;;;;;;;-1.41;86.21;95434.59;5053783;28;20217;-63
2022/03/12 04:44:07;;;;;;;10.93;5.90;;;;;;;-1.33;87.04;95432.72;5053447;28;20699;-63
2022/03/12 04:46:34;;;;;;;7.03;5.03;;;;;;;-1.26;86.43;95440.84;5053751;28;20298;-61
2022/03/12 04:49:01;;;;;;;11.77;5.57;;;;;;;-1.15;85.58;95469.63;5053635;28;20578;-63
2022/03/12 04:51:28;;;;;;;10.47;5.37;;;;;;;-1.48;86.63;95437.28;5053097;28;20235;-65
2022/03/12 04:54:01;;;;;;;6.60;4.90;;;;;;;-1.44;86.90;95434.69;5053258;28;20600;-63
2022/03/12 04:56:27;;;;;;;11.20;7.27;;;;;;;-1.50;87.52;95424.03;5053434;28;20205;-62
2022/03/12 04:58:53;;;;;;;17.13;8.60;;;;;;;-1.55;88.66;95413.38;5053166;28;20177;-65
2022/03/12 05:01:23;;;;;;;14.50;8.87;;;;;;;-1.42;89.26;95415.53;5053242;28;20219;-66
2022/03/12 05:03:49;;;;;;;10.13;7.53;;;;;;;-1.69;89.49;95411.22;5035174;28;20188;-64
2022/03/12 05:06:15;;;;;;;10.93;6.93;;;;;;;-1.68;89.12;95422.03;5052275;28;20277;-65
2022/03/12 05:08:41;;;;;;;10.07;7.13;;;;;;;-1.68;89.30;95414.56;5052732;28;20192;-65
2022/03/12 05:11:07;;;;;;;15.07;7.43;;;;;;;-1.73;89.34;95429.59;5053269;28;20204;-63
2022/03/12 05:13:34;;;;;;;12.73;7.37;;;;;;;-1.55;87.58;95473.19;5052909;28;20243;-63
2022/03/12 05:16:03;;;;;;;11.47;7.00;;;;;;;-1.76;89.53;95422.22;5053011;28;20215;-63
2022/03/12 05:18:28;;;;;;;13.03;6.83;;;;;;;-1.85;89.57;95439.88;5052765;28;20259;-63
2022/03/12 05:20:54;;;;;;;11.83;6.97;;;;;;;-1.90;90.05;95435.00;5034590;28;20774;-62
2022/03/12 05:23:21;;;;;;;13.87;7.63;;;;;;;-1.84;89.67;95442.31;5034901;28;20209;-64
2022/03/12 05:25:48;;;;;;;11.43;6.97;;;;;;;-1.76;89.58;95444.66;5052923;28;20297;-64
2022/03/12 05:28:17;;;;;;;25.70;7.37;;;;;;;-1.66;89.56;95452.72;5034986;28;20265;-63
2022/03/12 05:30:46;;;;;;;12.53;7.00;;;;;;;-1.62;88.95;95456.75;5052864;28;20234;-64
2022/03/12 05:33:13;;;;;;;13.70;7.70;;;;;;;-1.52;88.79;95460.66;5034639;28;20712;-67
2022/03/12 05:35:41;;;;;;;12.47;7.27;;;;;;;-1.39;90.15;95445.34;5052835;28;20647;-66
2022/03/12 05:38:07;;;;;;;13.93;8.17;;;;;;;-1.42;89.25;95472.03;5037749;23;20252;-66
2022/03/12 05:40:38;;;;;;;13.03;7.37;;;;;;;-1.44;88.93;95469.59;5032342;28;20201;-63
2022/03/12 05:43:07;;;;;;;15.57;8.23;;;;;;;-1.47;88.32;95476.31;5033114;28;20187;-66
2022/03/12 05:45:33;;;;;;;17.07;7.60;;;;;;;-1.46;88.53;95493.72;5015454;28;20251;-62
2022/03/12 05:47:59;;;;;;;13.47;7.10;;;;;;;-1.49;88.60;95483.00;5032958;28;20187;-63
2022/03/12 05:50:26;;;;;;;16.37;7.93;;;;;;;-1.46;89.52;95478.78;5015378;28;20213;-66
2022/03/12 05:52:52;;;;;;;11.30;7.00;;;;;;;-1.46;89.53;95483.75;5032018;28;20193;-66
2022/03/12 05:55:21;;;;;;;13.17;7.03;;;;;;;-1.59;90.80;95472.44;5032055;28;20207;-64
2022/03/12 05:57:47;;;;;;;13.77;8.10;;;;;;;-1.32;90.28;95493.38;5030944;28;20242;-64
2022/03/12 06:00:15;;;;;;;14.27;7.80;;;;;;;-1.39;90.28;95482.72;5014404;28;20667;-64
2022/03/12 06:02:52;;;;;;;12.70;6.90;;;;;;;-1.14;89.03;95500.38;5014777;28;20572;-63
2022/03/12 06:05:19;;;;;;;11.20;7.23;;;;;;;-1.49;89.70;95483.00;5032263;28;20232;-62
2022/03/12 06:07:46;;;;;;;13.03;8.67;;;;;;;-1.92;90.62;95473.28;5032447;28;20193;-62
2022/03/12 06:10:21;;;;;;;12.43;7.47;;;;;;;-1.80;92.39;95463.81;5031903;28;20592;-63
2022/03/12 06:12:47;;;;;;;13.33;8.27;;;;;;;-1.72;92.08;95476.91;5032418;28;20183;-64
2022/03/12 06:15:17;;;;;;;13.77;8.17;;;;;;;-2.21;93.79;95466.47;5014149;28;20236;-64
2022/03/12 06:17:49;;;;;;;14.80;8.33;;;;;;;-2.23;95.12;95465.69;5013612;28;20280;-62
2022/03/12 06:20:22;;;;;;;14.70;9.37;;;;;;;-2.24;96.05;95469.03;5031739;28;20703;-63
2022/03/12 06:22:49;;;;;;;18.40;9.67;;;;;;;-2.30;97.07;95470.84;5032867;28;20573;-65
2022/03/12 06:25:17;;;;;;;17.40;8.53;;;;;;;-2.48;97.43;95483.69;5032535;28;20204;-62
2022/03/12 06:27:43;;;;;;;15.33;8.67;;;;;;;-2.46;97.32;95479.50;5032898;28;20249;-63
2022/03/12 06:30:12;;;;;;;16.50;8.53;;;;;;;-2.47;98.00;95480.34;5031864;28;20282;-64
2022/03/12 06:32:39;;;;;;;13.43;7.67;;;;;;;-2.44;97.89;95492.72;5032256;28;20289;-62
2022/03/12 06:35:06;;;;;;;18.27;8.80;;;;;;;-2.15;97.40;95495.38;5014430;28;20281;-66
2022/03/12 06:37:32;;;;;;;17.27;8.50;;;;;;;-2.06;92.82;95535.84;5032049;28;20224;-64
2022/03/12 06:40:00;;;;;;;13.60;8.10;;;;;;;-2.02;90.60;95561.50;5013785;28;20189;-64
2022/03/12 06:42:27;;;;;;;14.67;7.57;;;;;;;-1.76;88.30;95579.19;5032634;28;20197;-61
2022/03/12 06:44:54;;;;;;;11.47;6.50;;;;;;;-1.33;85.61;95608.91;5032189;28;20266;-61
2022/03/12 06:47:20;;;;;;;15.43;6.10;;;;;;;-0.03;100.00;95509.69;5032324;28;20651;-66
2022/03/12 06:49:46;;;;;;;9.73;6.87;;;;;;;1.87;100.00;95506.53;5014153;28;20272;-71
2022/03/12 06:59:57;;;;;;;6.67;5.00;;;;;;;1.44;97.48;95695.13;5870976;23;20244;-72
2022/03/12 07:02:22;;;;;;;8.03;5.30;;;;;;;1.44;90.82;95770.28;5924271;23;20219;-72
2022/03/12 07:07:23;;;;;;;8.20;4.73;;;;;;;0.85;91.56;95705.34;5751652;22;20229;-74
2022/03/12 07:12:16;;;;;;;6.87;5.30;;;;;;;0.80;89.15;95721.38;5623289;22;20232;-68
2022/03/12 07:17:07;;;;;;;7.70;4.93;;;;;;;0.30;85.96;95722.84;5128017;23;20791;-69
2022/03/12 07:19:32;;;;;;;10.97;6.33;;;;;;;0.34;84.98;95743.56;5322378;23;20253;-65
2022/03/12 07:21:57;;;;;;;7.57;4.93;;;;;;;0.38;88.32;95685.94;5181558;23;20238;-69
2022/03/12 07:36:36;;;;;;;8.00;4.70;;;;;;;0.46;75.77;95739.06;5108195;23;20644;-67
2022/03/12 07:39:03;;;;;;;7.77;4.50;;;;;;;0.37;75.44;95746.81;5104230;23;20234;-65
2022/03/12 07:41:30;;;;;;;6.30;4.40;;;;;;;0.50;70.77;95847.31;5105672;23;20341;-70
2022/03/12 07:46:21;;;;;;;7.00;4.60;;;;;;;0.30;71.59;95815.34;5096106;23;20238;-69
2022/03/12 07:48:48;;;;;;;5.57;4.13;;;;;;;0.48;69.92;95844.03;5099608;23;20263;-69
2022/03/12 07:51:13;;;;;;;9.27;4.20;;;;;;;0.55;72.90;95753.78;5054036;23;20590;-65
2022/03/12 07:53:39;;;;;;;9.23;4.33;;;;;;;0.65;71.03;95805.19;5034974;28;20275;-66
2022/03/12 07:56:07;;;;;;;8.43;4.10;;;;;;;0.74;71.53;95797.44;5078503;23;20227;-70
2022/03/12 07:58:33;;;;;;;6.33;3.90;;;;;;;0.72;71.37;95781.66;4799144;23;7546660;-68
2022/03/12 08:01:05;;;;;;;8.00;4.33;;;;;;;0.87;68.53;95852.94;5016874;28;20209;-66
2022/03/12 08:03:31;;;;;;;8.73;4.20;;;;;;;0.87;68.79;95832.13;5035442;28;20197;-68
2022/03/12 08:05:57;;;;;;;6.97;4.43;;;;;;;1.03;71.30;95779.06;5073473;22;20230;-69
2022/03/12 08:08:23;;;;;;;9.23;4.87;;;;;;;1.05;70.03;95812.38;5063383;23;20234;-66
2022/03/12 08:13:21;;;;;;;7.80;4.33;;;;;;;0.61;67.87;95847.84;5100681;23;20261;-66
2022/03/12 08:15:48;;;;;;;6.90;3.67;;;;;;;0.63;68.64;95813.59;5057702;23;20317;-68
2022/03/12 08:18:14;;;;;;;5.73;4.03;;;;;;;0.74;67.54;95824.97;5053772;23;20314;-70
2022/03/12 08:20:40;;;;;;;7.53;4.43;;;;;;;0.77;65.43;95886.59;5048194;23;20256;-67
2022/03/12 08:23:08;;;;;;;6.43;4.00;;;;;;;0.75;65.64;95873.31;5072500;23;20233;-70
2022/03/12 08:25:34;;;;;;;7.50;4.00;;;;;;;0.80;64.38;95899.03;5098291;22;20305;-71
2022/03/12 08:27:59;;;;;;;6.33;4.23;;;;;;;0.44;65.55;95865.00;5066061;23;20234;-66
2022/03/12 08:30:25;;;;;;;7.07;3.67;;;;;;;0.38;65.66;95870.16;5060875;23;20228;-66
2022/03/12 08:32:50;;;;;;;4.93;3.63;;;;;;;0.54;63.74;95898.91;5071587;23;20265;-65
2022/03/12 08:35:17;;;;;;;7.27;3.93;;;;;;;0.34;64.12;95893.59;5078001;23;20635;-66
2022/03/12 08:37:43;;;;;;;8.13;4.50;;;;;;;0.79;67.08;95823.16;5053792;28;20283;-70
2022/03/12 08:40:14;;;;;;;6.10;4.33;;;;;;;1.12;67.29;95830.53;5084376;23;20716;-67
2022/03/12 08:42:39;;;;;;;7.97;4.03;;;;;;;1.21;64.28;95878.66;5050339;23;20239;-64
2022/03/12 08:45:07;;;;;;;8.20;3.67;;;;;;;3.75;100.00;95588.38;5022732;23;20199;-67
2022/03/12 08:47:33;;;;;;;6.67;4.00;;;;;;;2.99;88.67;95877.84;5046852;23;20619;-67
2022/03/12 08:49:59;;;;;;;6.60;4.50;;;;;;;1.74;67.57;95979.03;5064173;23;20260;-63
2022/03/12 08:52:25;;;;;;;6.03;3.60;;;;;;;1.23;66.75;95927.00;5033046;23;20238;-70
2022/03/12 08:54:51;;;;;;;6.60;4.27;;;;;;;0.87;67.55;95862.16;5033457;28;20209;-66
2022/03/12 08:57:17;;;;;;;6.87;4.50;;;;;;;0.77;65.47;95891.59;5033956;28;20182;-66
2022/03/12 08:59:43;;;;;;;7.10;4.00;;;;;;;1.21;64.91;95888.69;5033347;28;20182;-67
2022/03/12 09:02:11;;;;;;;6.60;4.53;;;;;;;1.41;68.73;95795.44;5039774;23;20232;-64
2022/03/12 09:04:36;;;;;;;7.07;4.57;;;;;;;1.28;65.65;95851.75;5016033;28;20182;-64
2022/03/12 09:07:11;;;;;;;8.60;4.50;;;;;;;1.37;65.89;95839.81;5034822;28;20206;-67
2022/03/12 09:09:37;;;;;;;9.03;4.57;;;;;;;1.45;68.37;95771.94;5062540;23;20228;-64
2022/03/12 09:12:04;;;;;;;7.37;4.67;;;;;;;1.66;66.21;95832.19;5059276;23;20201;-64
2022/03/12 09:14:34;;;;;;;7.00;4.37;;;;;;;1.63;61.98;95904.97;5033013;28;20206;-63
2022/03/12 09:17:00;;;;;;;7.00;4.87;;;;;;;1.62;63.15;95868.25;5033492;28;20201;-66
2022/03/12 09:19:26;;;;;;;6.93;4.60;;;;;;;1.68;64.09;95847.19;5033063;28;20186;-64
2022/03/12 09:21:51;;;;;;;7.90;4.70;;;;;;;1.78;63.60;95861.06;5032829;28;20203;-65
2022/03/12 09:24:17;;;;;;;7.10;4.73;;;;;;;2.11;64.27;95849.16;5033002;28;20186;-67
2022/03/12 09:26:43;;;;;;;8.30;5.03;;;;;;;1.81;58.82;95976.28;5033041;28;20561;-63
2022/03/12 09:29:08;;;;;;;8.63;6.00;;;;;;;1.52;58.16;95968.78;5015042;28;20186;-64
2022/03/12 09:31:34;;;;;;;7.97;5.07;;;;;;;2.15;59.38;95918.41;5046172;23;20738;-65
2022/03/12 09:34:02;;;;;;;5.63;4.30;;;;;;;2.02;55.74;96022.47;5032841;28;20197;-66
2022/03/12 09:36:29;;;;;;;7.37;5.20;;;;;;;2.57;58.41;95914.47;5033581;23;20313;-71
2022/03/12 09:38:54;;;;;;;10.80;4.80;;;;;;;2.58;56.49;95956.28;5012978;28;20171;-65
2022/03/12 09:41:20;;;;;;;5.40;3.87;;;;;;;3.03;55.62;95967.28;5037693;23;20597;-65
2022/03/12 09:43:45;;;;;;;6.37;3.67;;;;;;;3.48;52.98;96039.44;5053845;23;20659;-66
2022/03/12 09:46:11;;;;;;;4.87;3.83;;;;;;;3.63;53.65;95966.00;5039304;23;20688;-66
2022/03/12 09:48:36;;;;;;;5.20;3.40;;;;;;;3.91;50.57;96012.72;5032680;28;20182;-73
2022/03/12 09:51:03;;;;;;;4.00;2.90;;;;;;;4.26;49.52;95984.50;5106118;23;20705;-66
2022/03/12 09:53:28;;;;;;;5.90;3.53;;;;;;;4.06;47.54;95936.66;5013884;28;20191;-67
2022/03/12 09:55:54;;;;;;;4.30;3.33;;;;;;;3.06;47.32;95921.16;5091535;23;20232;-67
2022/03/12 09:58:20;;;;;;;4.67;3.23;;;;;;;3.47;47.34;95927.22;5075452;23;20234;-66
2022/03/12 10:00:46;;;;;;;4.13;3.23;;;;;;;3.94;49.96;95846.56;5046314;23;20588;-66
2022/03/12 10:03:11;;;;;;;5.70;3.03;;;;;;;3.63;47.38;95933.31;5063892;23;20593;-67
2022/03/12 10:05:37;;;;;;;5.87;3.50;;;;;;;3.57;50.24;95853.09;5027211;23;20301;-70
2022/03/12 10:08:03;;;;;;;5.03;3.20;;;;;;;3.72;48.02;95898.56;5067762;23;20229;-70
2022/03/12 10:10:30;;;;;;;6.13;3.00;;;;;;;3.65;47.86;95882.09;5051919;28;20646;-69
2022/03/12 10:12:55;;;;;;;5.27;3.20;;;;;;;3.99;47.89;95892.50;5050997;28;20254;-66
2022/03/12 10:15:21;;;;;;;3.60;3.13;;;;;;;4.26;48.87;95861.19;5055485;23;20222;-66
2022/03/12 10:17:49;;;;;;;4.87;3.30;;;;;;;4.54;50.18;95829.84;5057817;23;20232;-66
2022/03/12 10:20:15;;;;;;;7.40;3.13;;;;;;;4.61;48.79;95869.78;5077807;23;20273;-66
2022/03/12 10:22:42;;;;;;;5.00;3.20;;;;;;;4.65;48.89;95856.19;5037624;23;20640;-67
2022/03/12 10:25:09;;;;;;;4.37;3.23;;;;;;;4.91;49.48;95842.47;5031744;28;20249;-65
2022/03/12 10:27:35;;;;;;;5.40;3.47;;;;;;;4.65;46.40;95908.25;5032012;28;20179;-65
2022/03/12 10:30:01;;;;;;;4.70;3.60;;;;;;;4.42;47.78;95873.97;5038904;23;20236;-66
2022/03/12 10:32:29;;;;;;;5.70;3.80;;;;;;;4.13;45.67;95897.81;5031255;28;20736;-64
2022/03/12 10:34:59;;;;;;;5.40;3.47;;;;;;;3.72;45.49;95910.31;5031700;28;20232;-71
2022/03/12 10:37:31;;;;;;;7.10;3.60;;;;;;;3.81;47.15;95867.25;5031846;28;20245;-65
2022/03/12 10:40:20;;;;;;;4.40;3.47;;;;;;;3.60;44.95;95900.72;5055089;23;20193;-70
2022/03/12 10:42:56;;;;;;;7.53;3.97;;;;;;;3.01;44.91;95923.81;5060715;23;20681;-66
2022/03/12 10:45:25;;;;;;;6.73;3.50;;;;;;;2.90;44.95;95915.88;5038274;23;20230;-65
2022/03/12 10:47:56;;;;;;;5.17;3.30;;;;;;;2.73;46.23;95869.63;5031618;28;20181;-65
2022/03/12 10:50:25;;;;;;;4.90;3.40;;;;;;;2.76;47.63;95826.81;5031697;28;20656;-68
2022/03/12 10:52:54;;;;;;;4.67;3.70;;;;;;;2.57;49.66;95789.00;5031437;28;20201;-64
2022/03/12 10:55:26;;;;;;;6.57;3.23;;;;;;;2.62;48.72;95799.72;5031507;28;20285;-65
2022/03/12 10:58:00;;;;;;;4.30;3.27;;;;;;;2.54;47.74;95811.72;5031752;28;20171;-70
2022/03/12 11:00:28;;;;;;;7.57;3.60;;;;;;;2.46;47.66;95808.66;5026680;23;20324;-66
2022/03/12 11:03:00;;;;;;;3.53;3.23;;;;;;;2.43;49.67;95761.06;5031384;28;20620;-66
2022/03/12 11:05:33;;;;;;;5.97;4.03;;;;;;;2.58;49.58;95775.59;5049382;23;20248;-66
2022/03/12 11:08:21;;;;;;;6.00;3.87;;;;;;;2.66;48.52;95786.19;4997250;28;20751;-68
2022/03/12 11:10:50;;;;;;;5.40;3.27;;;;;;;2.56;47.33;95823.31;5007576;28;20204;-66
2022/03/12 11:16:05;;;;;;;4.17;3.50;;;;;;;3.39;49.13;95772.50;5048114;23;20232;-66
2022/03/12 11:18:34;;;;;;;6.63;3.80;;;;;;;3.65;51.06;95740.50;5041909;23;20320;-69
2022/03/12 11:21:00;;;;;;;5.03;3.20;;;;;;;3.89;49.95;95767.16;5061108;23;20232;-66
2022/03/12 11:23:30;;;;;;;5.53;3.50;;;;;;;4.41;48.13;95796.81;5035331;28;20181;-69
2022/03/12 11:25:59;;;;;;;9.13;3.57;;;;;;;4.81;49.46;95771.53;5041583;23;20699;-69
2022/03/12 11:28:28;;;;;;;5.33;3.07;;;;;;;5.21;49.93;95760.50;5035089;28;20178;-66
2022/03/12 11:30:54;;;;;;;3.63;2.27;;;;;;;5.16;47.24;95827.91;5035586;28;20217;-68
2022/03/12 11:33:21;;;;;;;3.00;2.37;;;;;;;5.06;43.77;95893.03;5047820;23;20241;-64
2022/03/12 11:35:49;;;;;;;3.37;2.40;;;;;;;5.43;42.15;95911.59;5035123;28;20704;-69
2022/03/12 11:38:18;;;;;;;2.93;2.50;;;;;;;5.93;42.64;95895.00;5017723;28;20219;-66
2022/03/12 11:43:24;;;;;;;3.67;2.80;;;;;;;6.11;41.79;95898.34;5065155;22;20235;-67
2022/03/12 11:45:53;;;;;;;3.30;2.93;;;;;;;6.19;39.58;95934.97;5017030;28;20691;-68
2022/03/12 11:48:18;;;;;;;3.70;2.97;;;;;;;6.19;38.03;95939.19;5034664;28;20735;-67
2022/03/12 11:50:44;;;;;;;4.03;2.50;;;;;;;5.81;37.22;95959.44;5066857;23;20328;-66
2022/03/12 11:53:16;;;;;;;3.17;2.50;;;;;;;5.57;40.70;95836.94;5028546;23;20705;-65
2022/03/12 11:55:42;;;;;;;3.07;2.53;;;;;;;5.75;41.01;95837.78;5041216;23;20224;-70
2022/03/12 11:58:07;;;;;;;2.47;2.10;;;;;;;5.92;39.13;95879.03;5019836;23;20241;-65
2022/03/12 12:00:33;;;;;;;3.67;2.20;;;;;;;5.57;39.54;95861.34;5014523;28;20289;-68
2022/03/12 12:02:59;;;;;;;4.20;3.20;;;;;;;5.90;41.17;95821.94;5015238;28;20181;-65
2022/03/12 12:05:30;;;;;;;4.43;2.83;;;;;;;5.59;39.54;95852.84;4997408;28;20271;-69
2022/03/12 12:07:56;;;;;;;2.83;2.57;;;;;;;5.66;39.44;95871.00;5059012;23;20299;-68
2022/03/12 12:10:30;;;;;;;5.17;2.87;;;;;;;5.24;41.12;95818.31;5055119;23;20310;-65
2022/03/12 12:12:58;;;;;;;3.13;2.57;;;;;;;5.07;42.92;95778.75;5033236;28;20586;-68